Time;durP1;ratioP1;P1;durP2;ratioP2;P2;SDS_P1;SDS_P2;PMS_P1;PMS_P2;Temp;Humidity;BMP_temperature;BMP_pressure;BME280_temperature;BME280_humidity;BME280_pressure;Samples;Min_cycle;Max_cycle;Signal;HPM_P1;HPM_P2
2022/05/10 00:01:52;;;;;;;6.22;3.20;;;14.60;99.90;;;;;;5089239;28;20051;-77
2022/05/10 00:04:18;;;;;;;5.13;3.20;;;14.60;99.90;;;;;;5077566;28;20406;-77
2022/05/10 00:06:48;;;;;;;5.45;3.13;;;14.60;99.90;;;;;;5080769;28;20055;-77
2022/05/10 00:09:16;;;;;;;4.68;3.42;;;14.50;99.90;;;;;;5076364;28;20115;-77
2022/05/10 00:11:42;;;;;;;4.63;3.25;;;14.40;99.90;;;;;;5077172;28;20063;-78
2022/05/10 00:14:08;;;;;;;5.38;2.92;;;14.40;99.90;;;;;;5092775;28;20053;-77
2022/05/10 00:16:39;;;;;;;6.53;3.40;;;14.30;99.90;;;;;;5085461;28;20048;-77
2022/05/10 00:19:04;;;;;;;5.55;3.10;;;14.20;99.90;;;;;;5077272;28;20064;-77
2022/05/10 00:21:30;;;;;;;6.07;3.63;;;14.20;99.90;;;;;;5074209;28;20435;-77
2022/05/10 00:23:56;;;;;;;10.63;3.75;;;14.10;99.90;;;;;;5059566;28;20044;-77
2022/05/10 00:26:22;;;;;;;10.57;3.58;;;14.10;99.90;;;;;;5051077;28;20110;-77
2022/05/10 00:28:48;;;;;;;5.68;3.55;;;14.10;99.90;;;;;;5085968;28;20048;-77
2022/05/10 00:31:14;;;;;;;10.93;4.32;;;14.10;99.90;;;;;;5076778;28;20036;-75
2022/05/10 00:33:40;;;;;;;7.82;4.53;;;14.20;99.90;;;;;;5038065;28;20447;-75
2022/05/10 00:36:09;;;;;;;7.65;4.60;;;14.30;99.90;;;;;;5064343;28;20068;-76
2022/05/10 00:38:38;;;;;;;9.57;4.55;;;14.20;99.90;;;;;;5064419;28;20114;-76
2022/05/10 00:41:47;;;;;;;8.77;5.63;;;14.20;99.90;;;;;;5087871;28;20080;-75
2022/05/10 00:44:29;;;;;;;9.80;5.35;;;14.30;99.90;;;;;;5068804;28;20193;-76
2022/05/10 00:47:35;;;;;;;9.20;5.43;;;14.50;99.90;;;;;;5060255;28;20527;-77
2022/05/10 00:50:13;;;;;;;8.85;5.70;;;14.70;99.90;;;;;;5065664;28;20052;-75
2022/05/10 00:52:44;;;;;;;9.20;5.22;;;14.90;99.90;;;;;;5063789;28;20084;-77
2022/05/10 00:55:28;;;;;;;9.50;5.78;;;14.90;99.90;;;;;;5085605;28;20135;-77
2022/05/10 00:58:21;;;;;;;10.38;5.78;;;15.00;99.90;;;;;;5082694;28;20120;-76
2022/05/10 01:00:48;;;;;;;10.50;6.15;;;15.10;99.90;;;;;;5054821;28;20064;-75
2022/05/10 01:03:30;;;;;;;8.40;5.60;;;15.10;99.90;;;;;;5068077;28;20079;-76
2022/05/10 01:06:20;;;;;;;13.07;6.75;;;15.20;99.90;;;;;;5085368;28;20056;-75
2022/05/10 01:09:01;;;;;;;10.30;6.53;;;15.30;99.90;;;;;;5068268;28;20059;-76
2022/05/10 01:11:47;;;;;;;11.48;7.80;;;15.30;99.90;;;;;;5089912;28;20055;-76
2022/05/10 01:14:18;;;;;;;12.25;7.43;;;15.40;99.90;;;;;;5079724;28;20041;-76
2022/05/10 01:16:44;;;;;;;15.27;7.93;;;15.40;99.90;;;;;;5064234;28;20045;-76
2022/05/10 01:19:12;;;;;;;12.82;7.88;;;15.50;99.90;;;;;;5055904;28;20036;-78
2022/05/10 01:22:10;;;;;;;14.65;8.80;;;15.50;99.90;;;;;;5091782;28;20065;-80
2022/05/10 01:25:08;;;;;;;12.60;8.07;;;15.50;99.90;;;;;;5083957;28;20123;-76
2022/05/10 01:27:52;;;;;;;11.68;8.18;;;15.40;99.90;;;;;;5078920;28;20063;-77
2022/05/10 01:30:30;;;;;;;12.38;8.98;;;15.40;99.90;;;;;;5088059;28;20056;-77
2022/05/10 01:36:14;;;;;;;12.35;8.73;;;15.30;99.90;;;;;;5085572;28;20049;-74
2022/05/10 01:39:06;;;;;;;15.40;8.55;;;15.20;99.90;;;;;;5068704;28;20097;-77
2022/05/10 01:42:02;;;;;;;14.57;9.50;;;15.30;99.90;;;;;;5057862;28;20041;-76
2022/05/10 01:44:56;;;;;;;13.82;8.82;;;15.30;99.90;;;;;;5085927;28;20468;-75
2022/05/10 01:47:36;;;;;;;13.82;8.25;;;15.30;99.90;;;;;;5045072;28;20048;-76
2022/05/10 01:50:08;;;;;;;14.10;8.75;;;15.60;99.90;;;;;;5072826;28;20056;-75
2022/05/10 01:52:47;;;;;;;14.80;9.40;;;15.30;99.90;;;;;;5082578;28;20131;-75
2022/05/10 01:55:50;;;;;;;12.98;8.80;;;15.20;99.90;;;;;;5044072;28;20481;-76
2022/05/10 01:58:23;;;;;;;13.55;9.40;;;15.00;99.90;;;;;;5001852;28;20041;-73
2022/05/10 02:01:10;;;;;;;14.20;9.15;;;14.90;99.90;;;;;;5036963;28;20414;-75
2022/05/10 02:03:44;;;;;;;13.82;9.68;;;14.70;99.90;;;;;;5080081;28;20040;-75
2022/05/10 02:06:15;;;;;;;12.02;8.60;;;14.60;99.90;;;;;;5067047;28;20045;-75
2022/05/10 02:09:03;;;;;;;14.82;8.93;;;14.60;99.90;;;;;;5075348;28;20614;-76
2022/05/10 02:11:29;;;;;;;16.00;9.02;;;14.60;99.90;;;;;;5079501;28;20486;-76
2022/05/10 02:14:22;;;;;;;13.60;8.88;;;14.50;99.90;;;;;;5064538;28;20052;-75
2022/05/10 02:17:15;;;;;;;12.30;8.73;;;14.60;99.90;;;;;;5063397;28;20051;-74
2022/05/10 02:19:57;;;;;;;13.05;8.55;;;14.60;99.90;;;;;;5069217;28;20509;-76
2022/05/10 02:22:30;;;;;;;11.60;8.52;;;14.60;99.90;;;;;;5053912;28;20057;-74
2022/05/10 02:25:05;;;;;;;11.73;9.27;;;14.50;99.90;;;;;;5069930;28;20076;-78
2022/05/10 02:28:01;;;;;;;13.93;9.18;;;14.60;99.90;;;;;;5085217;28;20048;-75
2022/05/10 02:30:30;;;;;;;13.43;9.40;;;14.60;99.90;;;;;;5043552;28;20053;-76
2022/05/10 02:33:07;;;;;;;14.82;9.30;;;14.60;99.90;;;;;;5042808;28;20053;-74
2022/05/10 02:35:46;;;;;;;12.93;9.23;;;14.50;99.90;;;;;;5067895;28;20084;-73
2022/05/10 02:38:15;;;;;;;13.90;9.32;;;14.60;99.90;;;;;;5062641;28;20036;-74
2022/05/10 02:40:43;;;;;;;15.90;9.82;;;14.60;99.90;;;;;;5084753;28;20559;-75
2022/05/10 02:43:16;;;;;;;14.77;9.50;;;14.60;99.90;;;;;;5084132;28;20054;-76
2022/05/10 02:45:43;;;;;;;14.50;9.05;;;14.50;99.90;;;;;;5070729;28;20078;-75
2022/05/10 02:48:14;;;;;;;15.20;9.85;;;14.50;99.90;;;;;;5044742;28;20068;-75
2022/05/10 02:50:40;;;;;;;16.80;10.23;;;14.50;99.90;;;;;;5066371;28;20044;-76
2022/05/10 02:53:06;;;;;;;15.23;10.10;;;14.50;99.90;;;;;;5077176;28;20048;-76
2022/05/10 02:55:32;;;;;;;14.32;9.80;;;14.40;99.90;;;;;;5073772;28;20103;-74
2022/05/10 02:58:04;;;;;;;14.40;9.93;;;14.40;99.90;;;;;;5077134;28;20040;-73
2022/05/10 03:00:31;;;;;;;15.07;10.15;;;14.30;99.90;;;;;;5078437;28;20059;-75
2022/05/10 03:03:06;;;;;;;15.98;10.18;;;14.30;99.90;;;;;;5063578;28;20052;-74
2022/05/10 03:05:31;;;;;;;16.33;10.10;;;14.30;99.90;;;;;;5054576;28;20033;-75
2022/05/10 03:07:57;;;;;;;14.02;9.15;;;14.40;99.90;;;;;;5044476;28;20114;-75
2022/05/10 03:10:23;;;;;;;15.73;10.05;;;14.40;99.90;;;;;;5060773;28;20048;-74
2022/05/10 03:12:49;;;;;;;17.35;10.00;;;14.50;99.90;;;;;;5057490;28;20062;-75
2022/05/10 03:15:15;;;;;;;14.02;10.70;;;14.30;99.90;;;;;;5077090;28;20090;-75
2022/05/10 03:17:40;;;;;;;15.60;9.80;;;14.50;99.90;;;;;;5054825;28;20049;-76
2022/05/10 03:20:07;;;;;;;14.68;10.52;;;14.60;99.90;;;;;;5026867;28;20136;-74
2022/05/10 03:22:32;;;;;;;15.50;10.15;;;14.60;99.90;;;;;;5060391;28;20045;-75
2022/05/10 03:24:58;;;;;;;20.08;10.48;;;14.60;99.90;;;;;;5040914;28;20052;-75
2022/05/10 03:27:24;;;;;;;15.90;10.30;;;14.60;99.90;;;;;;5080993;28;20056;-77
2022/05/10 03:29:50;;;;;;;14.20;9.95;;;14.50;99.90;;;;;;5083741;28;20419;-75
2022/05/10 03:32:17;;;;;;;14.88;10.75;;;14.50;99.90;;;;;;5064599;28;20763;-75
2022/05/10 03:34:54;;;;;;;16.90;11.05;;;14.40;99.90;;;;;;5041988;28;20061;-76
2022/05/10 03:37:21;;;;;;;15.27;11.13;;;14.40;99.90;;;;;;5073751;28;20040;-78
2022/05/10 03:39:47;;;;;;;16.25;10.98;;;14.30;99.90;;;;;;5088806;28;20059;-76
2022/05/10 03:42:13;;;;;;;15.50;10.80;;;14.30;99.90;;;;;;5069721;28;20041;-74
2022/05/10 03:44:38;;;;;;;14.20;11.13;;;14.30;99.90;;;;;;5043532;28;20044;-78
2022/05/10 03:47:05;;;;;;;14.75;10.68;;;14.30;99.90;;;;;;5061183;28;20044;-74
2022/05/10 03:49:31;;;;;;;17.80;10.90;;;14.30;99.90;;;;;;5041969;28;20155;-75
2022/05/10 03:51:57;;;;;;;16.80;11.32;;;14.40;99.90;;;;;;5043432;28;20103;-73
2022/05/10 03:54:24;;;;;;;14.55;10.20;;;14.40;99.90;;;;;;5040928;28;20509;-74
2022/05/10 03:56:50;;;;;;;14.68;10.80;;;14.50;99.90;;;;;;5043038;28;20051;-74
2022/05/10 03:59:17;;;;;;;17.15;11.60;;;14.50;99.90;;;;;;5060835;28;20071;-73
2022/05/10 04:01:44;;;;;;;16.05;10.75;;;14.50;99.90;;;;;;5078895;28;20131;-75
2022/05/10 04:04:10;;;;;;;20.05;11.45;;;14.60;99.90;;;;;;5061230;28;20041;-76
2022/05/10 04:06:36;;;;;;;15.07;10.75;;;14.60;99.90;;;;;;5067769;28;20109;-73
2022/05/10 04:09:02;;;;;;;16.50;11.38;;;14.60;99.90;;;;;;5049112;28;20044;-74
2022/05/10 04:11:27;;;;;;;16.45;10.93;;;14.60;99.90;;;;;;5061080;28;20059;-76
2022/05/10 04:13:54;;;;;;;17.17;10.85;;;14.50;99.90;;;;;;5078606;28;20102;-76
2022/05/10 04:16:20;;;;;;;14.85;10.18;;;14.60;99.90;;;;;;5088976;28;20056;-73
2022/05/10 04:18:45;;;;;;;16.35;10.65;;;14.60;99.90;;;;;;5079701;28;20071;-74
2022/05/10 04:21:11;;;;;;;16.30;10.80;;;14.70;99.90;;;;;;5028633;28;20057;-75
2022/05/10 04:23:37;;;;;;;14.95;10.48;;;14.70;99.90;;;;;;5041931;28;20107;-74
2022/05/10 04:26:05;;;;;;;16.23;10.75;;;14.80;99.90;;;;;;5069817;28;20041;-76
2022/05/10 04:28:32;;;;;;;14.55;10.77;;;14.90;99.90;;;;;;5061573;28;20036;-75
2022/05/10 04:30:58;;;;;;;13.25;9.23;;;14.90;99.90;;;;;;5038960;28;20044;-73
2022/05/10 04:33:24;;;;;;;15.25;10.52;;;14.90;99.90;;;;;;5053929;28;20056;-74
2022/05/10 04:35:49;;;;;;;16.60;9.93;;;14.90;99.90;;;;;;5038344;28;20048;-74
2022/05/10 04:38:15;;;;;;;15.57;9.43;;;14.90;99.90;;;;;;5067486;28;20047;-76
2022/05/10 04:43:28;;;;;;;13.85;9.30;;;15.00;99.90;;;;;;5070590;28;20040;-78
2022/05/10 04:45:53;;;;;;;14.20;9.30;;;15.10;99.90;;;;;;5033596;28;20044;-73
2022/05/10 04:48:19;;;;;;;14.55;9.13;;;15.10;99.90;;;;;;5048822;28;20044;-74
2022/05/10 04:50:45;;;;;;;15.50;9.68;;;15.20;99.90;;;;;;5051513;28;20051;-77
2022/05/10 04:53:11;;;;;;;12.23;8.80;;;15.30;99.90;;;;;;5068911;28;20044;-73
2022/05/10 04:55:36;;;;;;;14.20;9.10;;;15.30;99.90;;;;;;5050730;28;20104;-76
2022/05/10 04:58:02;;;;;;;12.88;8.82;;;15.40;99.90;;;;;;5091288;28;20045;-75
2022/05/10 05:00:29;;;;;;;13.93;8.98;;;15.50;99.90;;;;;;5089341;28;20048;-74
2022/05/10 05:02:55;;;;;;;12.40;7.78;;;15.60;99.90;;;;;;5075849;28;20044;-76
2022/05/10 05:05:21;;;;;;;13.82;9.32;;;15.60;99.90;;;;;;5046192;28;20044;-74
2022/05/10 05:07:47;;;;;;;12.38;8.68;;;15.60;99.90;;;;;;5083442;28;20041;-73
2022/05/10 05:10:13;;;;;;;11.85;8.43;;;15.70;99.90;;;;;;5042631;28;20044;-73
2022/05/10 05:12:39;;;;;;;12.15;9.23;;;15.70;99.90;;;;;;5064595;28;20040;-74
2022/05/10 05:15:08;;;;;;;11.60;8.27;;;15.70;99.90;;;;;;5069187;28;20048;-74
2022/05/10 05:17:34;;;;;;;16.38;8.82;;;15.80;99.90;;;;;;5079862;28;20044;-75
2022/05/10 05:19:59;;;;;;;12.27;7.88;;;15.80;99.90;;;;;;5088025;28;20052;-75
2022/05/10 05:22:26;;;;;;;12.77;8.65;;;15.80;99.90;;;;;;5038609;28;20055;-74
2022/05/10 05:24:53;;;;;;;12.43;8.38;;;15.90;99.90;;;;;;5041106;28;20055;-75
2022/05/10 05:27:19;;;;;;;12.70;8.50;;;15.90;99.90;;;;;;5082804;28;20041;-75
2022/05/10 05:29:46;;;;;;;11.10;7.85;;;15.90;99.90;;;;;;5056318;28;20036;-75
2022/05/10 05:32:13;;;;;;;13.43;8.38;;;15.90;99.90;;;;;;5065266;28;20087;-75
2022/05/10 05:34:39;;;;;;;14.82;8.65;;;15.90;99.90;;;;;;5075135;28;20442;-74
2022/05/10 05:39:49;;;;;;;11.65;7.82;;;15.90;99.90;;;;;;5055653;28;20049;-74
2022/05/10 05:42:17;;;;;;;11.48;7.93;;;16.00;99.90;;;;;;5059109;28;20128;-76
2022/05/10 05:44:43;;;;;;;15.25;9.20;;;16.00;99.90;;;;;;5091785;28;20498;-77
2022/05/10 05:47:09;;;;;;;13.15;8.82;;;16.10;99.90;;;;;;5093883;28;20397;-78
2022/05/10 05:49:34;;;;;;;13.95;8.90;;;16.10;99.90;;;;;;5061736;28;20044;-78
2022/05/10 05:52:01;;;;;;;12.35;8.63;;;16.00;99.90;;;;;;5050679;28;20124;-76
2022/05/10 05:54:28;;;;;;;14.75;8.85;;;16.00;99.90;;;;;;5077046;28;20040;-78
2022/05/10 05:57:01;;;;;;;12.98;9.48;;;16.00;99.90;;;;;;5053012;28;20051;-75
2022/05/10 05:59:27;;;;;;;11.90;8.82;;;16.00;99.90;;;;;;5079864;28;20041;-77
2022/05/10 06:01:54;;;;;;;14.85;9.32;;;16.10;99.90;;;;;;5064975;28;20055;-77
2022/05/10 06:04:19;;;;;;;13.60;8.07;;;16.10;99.90;;;;;;5064732;28;20048;-78
2022/05/10 06:06:45;;;;;;;12.70;9.13;;;16.10;99.90;;;;;;5085617;28;20060;-74
2022/05/10 06:09:11;;;;;;;12.73;8.93;;;16.20;99.90;;;;;;5045580;28;20098;-78
2022/05/10 06:11:38;;;;;;;12.93;8.98;;;16.30;99.90;;;;;;5068363;28;20071;-80
2022/05/10 06:14:04;;;;;;;15.95;9.18;;;16.30;99.90;;;;;;5052960;28;20048;-78
2022/05/10 06:16:30;;;;;;;14.18;9.45;;;16.30;99.90;;;;;;5070639;28;20504;-78
2022/05/10 06:18:56;;;;;;;14.18;8.85;;;16.40;99.90;;;;;;5076008;28;20049;-75
2022/05/10 06:21:22;;;;;;;12.98;8.95;;;16.40;99.90;;;;;;5072488;28;20399;-77
2022/05/10 06:23:47;;;;;;;12.15;8.20;;;16.50;99.90;;;;;;5080297;28;20093;-76
2022/05/10 06:26:13;;;;;;;12.13;8.75;;;16.50;99.90;;;;;;5068532;28;20048;-77
2022/05/10 06:28:39;;;;;;;13.13;8.95;;;16.60;99.90;;;;;;5081561;28;20077;-77
2022/05/10 06:31:06;;;;;;;14.60;8.77;;;16.70;99.90;;;;;;5078841;28;20068;-75
2022/05/10 06:33:32;;;;;;;14.23;9.32;;;16.70;99.90;;;;;;5064097;28;20551;-78
2022/05/10 06:35:58;;;;;;;13.00;9.10;;;16.80;99.90;;;;;;5060882;28;20162;-74
2022/05/10 06:38:29;;;;;;;11.45;8.25;;;16.80;99.90;;;;;;5062530;28;20090;-76
2022/05/10 06:40:59;;;;;;;13.27;8.40;;;16.90;99.90;;;;;;5094636;28;20044;-78
2022/05/10 06:43:25;;;;;;;12.48;8.93;;;16.90;99.90;;;;;;5093730;28;20032;-75
2022/05/10 06:45:51;;;;;;;13.20;8.40;;;17.00;99.90;;;;;;5071753;28;20139;-74
2022/05/10 06:48:17;;;;;;;14.55;9.02;;;17.10;99.90;;;;;;5077505;28;20068;-74
2022/05/10 06:50:44;;;;;;;12.90;8.82;;;17.20;99.90;;;;;;5047509;28;20041;-75
2022/05/10 06:53:10;;;;;;;17.25;9.20;;;17.40;99.90;;;;;;5095999;28;20055;-76
2022/05/10 06:55:38;;;;;;;13.32;8.35;;;17.50;99.90;;;;;;5088250;28;20047;-77
2022/05/10 06:58:04;;;;;;;13.45;8.95;;;17.60;99.90;;;;;;5079271;28;20060;-76
2022/05/10 07:00:36;;;;;;;12.10;8.98;;;17.60;99.90;;;;;;5079755;28;20642;-77
2022/05/10 07:03:07;;;;;;;12.40;7.97;;;17.70;99.90;;;;;;5078448;28;20052;-77
2022/05/10 07:05:34;;;;;;;9.68;8.60;;;17.80;99.90;;;;;;5044206;28;20044;-77
2022/05/10 07:08:00;;;;;;;11.52;8.65;;;17.90;99.90;;;;;;5076268;28;20045;-74
2022/05/10 07:10:25;;;;;;;10.35;8.48;;;17.90;99.90;;;;;;5090707;28;20047;-76
2022/05/10 07:12:52;;;;;;;12.77;8.23;;;17.90;99.90;;;;;;5051494;28;20043;-75
2022/05/10 07:15:19;;;;;;;11.25;8.30;;;17.90;99.90;;;;;;5095576;28;20071;-77
2022/05/10 07:17:45;;;;;;;12.57;8.27;;;17.90;99.90;;;;;;5092412;28;20575;-76
2022/05/10 07:20:13;;;;;;;10.65;8.50;;;17.80;99.90;;;;;;5072660;28;20452;-75
2022/05/10 07:22:40;;;;;;;14.00;8.70;;;17.90;99.90;;;;;;5082250;28;20132;-76
2022/05/10 07:25:06;;;;;;;13.05;8.40;;;17.90;99.90;;;;;;5060933;28;20053;-74
2022/05/10 07:27:32;;;;;;;14.18;9.07;;;18.00;99.90;;;;;;5076757;28;20053;-73
2022/05/10 07:29:58;;;;;;;13.35;8.38;;;18.20;99.90;;;;;;5088418;28;20094;-76
2022/05/10 07:32:25;;;;;;;15.00;8.90;;;18.40;99.90;;;;;;5047571;28;20036;-75
2022/05/10 07:34:51;;;;;;;13.23;8.77;;;18.70;99.90;;;;;;5063724;28;20040;-78
2022/05/10 07:37:17;;;;;;;11.00;8.25;;;18.80;99.90;;;;;;5079456;28;20186;-78
2022/05/10 07:39:43;;;;;;;11.73;9.20;;;18.80;99.90;;;;;;5076389;28;20102;-77
2022/05/10 07:42:09;;;;;;;14.32;9.07;;;19.00;99.90;;;;;;5078783;28;20041;-74
2022/05/10 07:44:35;;;;;;;14.00;8.82;;;19.20;99.90;;;;;;5092365;28;20047;-76
2022/05/10 07:47:00;;;;;;;12.90;7.80;;;19.30;99.90;;;;;;5056256;28;20036;-75
2022/05/10 07:49:26;;;;;;;12.93;7.50;;;19.40;99.90;;;;;;5086063;28;20043;-77
2022/05/10 07:51:52;;;;;;;12.45;7.28;;;19.60;99.90;;;;;;5081816;28;20072;-74
2022/05/10 07:54:19;;;;;;;13.70;8.45;;;19.70;99.90;;;;;;5077908;28;20533;-77
2022/05/10 07:56:44;;;;;;;12.40;6.80;;;19.80;99.90;;;;;;5075083;28;20037;-78
2022/05/10 07:59:10;;;;;;;11.20;7.55;;;19.80;99.90;;;;;;5049906;28;20067;-72
2022/05/10 08:01:37;;;;;;;11.23;7.38;;;19.90;99.90;;;;;;5065384;28;20557;-73
2022/05/10 08:04:04;;;;;;;11.50;7.30;;;20.00;99.90;;;;;;5083658;28;20047;-75
2022/05/10 08:06:30;;;;;;;11.75;7.47;;;20.20;99.90;;;;;;5058279;28;20071;-74
2022/05/10 08:08:56;;;;;;;12.95;7.45;;;20.30;99.90;;;;;;5077284;28;20411;-77
2022/05/10 08:11:22;;;;;;;11.43;7.10;;;20.40;99.90;;;;;;5080279;28;20040;-78
2022/05/10 08:13:48;;;;;;;11.60;6.47;;;20.50;99.90;;;;;;5086565;28;20049;-78
2022/05/10 08:16:14;;;;;;;9.85;6.35;;;20.70;99.90;;;;;;5077460;28;20051;-77
2022/05/10 08:18:41;;;;;;;10.07;5.93;;;20.80;99.90;;;;;;5072931;28;20055;-77
2022/05/10 08:21:08;;;;;;;10.95;6.30;;;21.00;99.90;;;;;;5076732;28;20064;-78
2022/05/10 08:23:36;;;;;;;8.95;5.85;;;21.10;99.90;;;;;;5050130;28;20048;-74
2022/05/10 08:26:03;;;;;;;7.78;6.13;;;21.20;99.90;;;;;;5076997;28;20049;-74
2022/05/10 08:28:34;;;;;;;9.10;5.63;;;21.30;99.90;;;;;;5088673;28;20064;-79
2022/05/10 08:31:03;;;;;;;7.78;5.28;;;21.40;99.90;;;;;;5095943;28;20214;-76
2022/05/10 08:33:32;;;;;;;8.05;4.75;;;21.50;99.90;;;;;;5082243;28;20104;-72
2022/05/10 08:35:58;;;;;;;11.73;5.28;;;21.50;99.90;;;;;;5083826;28;20106;-75
2022/05/10 08:38:25;;;;;;;9.15;5.45;;;21.50;99.90;;;;;;5059278;28;20070;-75
2022/05/10 08:40:56;;;;;;;9.25;5.90;;;21.40;99.90;;;;;;5065713;28;20078;-73
2022/05/10 08:43:26;;;;;;;9.90;5.45;;;21.40;99.90;;;;;;5076543;28;20044;-77
2022/05/10 08:45:53;;;;;;;8.18;5.55;;;21.40;99.90;;;;;;5076479;28;20064;-79
2022/05/10 08:48:19;;;;;;;8.43;5.93;;;21.40;99.90;;;;;;5068193;28;20036;-78
2022/05/10 08:50:47;;;;;;;7.65;5.10;;;21.30;99.90;;;;;;5057075;28;20079;-76
2022/05/10 08:53:14;;;;;;;7.70;4.88;;;21.30;99.90;;;;;;5078658;28;20048;-78
2022/05/10 08:56:19;;;;;;;8.27;5.32;;;21.30;99.90;;;;;;5056752;28;20044;-75
2022/05/10 08:58:53;;;;;;;7.85;5.13;;;21.30;99.90;;;;;;5073654;28;20068;-75
2022/05/10 09:01:26;;;;;;;7.07;4.80;;;21.30;99.90;;;;;;5078675;28;20124;-76
2022/05/10 09:04:35;;;;;;;10.00;5.07;;;21.30;99.90;;;;;;5059373;28;20044;-78
2022/05/10 09:07:18;;;;;;;8.18;5.03;;;21.40;99.90;;;;;;5078125;28;20080;-76
2022/05/10 09:10:00;;;;;;;6.45;4.22;;;21.40;99.90;;;;;;5075293;28;20045;-74
2022/05/10 09:12:27;;;;;;;9.15;5.70;;;21.50;99.90;;;;;;5085857;28;20044;-74
2022/05/10 09:14:59;;;;;;;9.38;5.28;;;21.60;99.90;;;;;;5034877;28;20112;-74
2022/05/10 09:17:31;;;;;;;6.65;5.13;;;21.70;99.90;;;;;;5087349;28;20044;-76
2022/05/10 09:19:58;;;;;;;8.63;5.50;;;22.00;99.90;;;;;;5083950;28;20449;-78
2022/05/10 09:22:42;;;;;;;9.18;4.85;;;22.20;99.90;;;;;;5074246;28;20084;-80
2022/05/10 09:25:30;;;;;;;7.18;5.20;;;22.20;99.90;;;;;;5090840;28;20102;-80
2022/05/10 09:27:58;;;;;;;7.15;4.80;;;22.30;99.90;;;;;;5063762;28;20135;-77
2022/05/10 09:30:33;;;;;;;9.38;5.38;;;22.50;99.90;;;;;;5078954;28;20045;-78
2022/05/10 09:36:06;;;;;;;6.45;5.03;;;22.70;99.90;;;;;;5069391;28;20056;-77
2022/05/10 09:38:34;;;;;;;7.07;4.90;;;22.70;99.90;;;;;;5081909;28;20052;-77
2022/05/10 09:41:00;;;;;;;6.90;5.35;;;22.60;99.90;;;;;;5079077;28;20048;-78
2022/05/10 09:43:32;;;;;;;8.98;5.55;;;22.40;99.90;;;;;;5085537;28;20048;-78
2022/05/10 09:46:21;;;;;;;8.60;5.57;;;22.40;99.90;;;;;;5083456;28;20056;-80
2022/05/10 09:48:48;;;;;;;7.65;5.68;;;22.30;99.90;;;;;;5079537;28;20056;-76
2022/05/10 09:51:32;;;;;;;7.72;5.53;;;22.30;99.90;;;;;;5069084;28;20036;-78
2022/05/10 09:54:01;;;;;;;7.80;5.50;;;22.20;99.90;;;;;;5080432;28;20048;-78
2022/05/10 09:56:41;;;;;;;7.25;5.10;;;22.20;99.90;;;;;;5071157;28;20047;-78
2022/05/10 09:59:23;;;;;;;8.05;5.45;;;22.20;99.90;;;;;;5084487;28;20052;-79
2022/05/10 10:01:54;;;;;;;10.27;5.57;;;22.20;99.90;;;;;;5080007;28;20060;-76
2022/05/10 10:04:31;;;;;;;6.68;5.15;;;22.20;99.90;;;;;;5085775;28;20063;-77
2022/05/10 10:07:13;;;;;;;7.05;5.43;;;22.20;99.90;;;;;;5068001;28;20099;-75
2022/05/10 10:09:48;;;;;;;7.28;5.97;;;22.20;99.90;;;;;;5064964;28;20513;-78
2022/05/10 10:12:31;;;;;;;7.78;5.95;;;22.10;99.90;;;;;;5053129;28;20050;-79
2022/05/10 10:14:57;;;;;;;7.85;5.65;;;22.20;99.90;;;;;;5077544;28;20060;-75
2022/05/10 10:17:30;;;;;;;7.47;5.20;;;22.20;99.90;;;;;;5048028;28;20090;-75
2022/05/10 10:20:25;;;;;;;6.55;5.30;;;22.30;99.90;;;;;;5064873;28;20060;-78
2022/05/10 10:22:53;;;;;;;6.97;5.45;;;22.30;99.90;;;;;;5069616;28;20083;-79
2022/05/10 10:25:28;;;;;;;6.82;5.07;;;22.30;99.90;;;;;;5094331;28;20052;-80
2022/05/10 10:28:23;;;;;;;5.70;5.03;;;22.30;99.90;;;;;;5080637;28;20036;-75
2022/05/10 10:30:57;;;;;;;7.43;5.85;;;22.40;99.90;;;;;;5077239;28;20330;-75
2022/05/10 10:33:29;;;;;;;8.05;5.85;;;22.40;99.90;;;;;;5064211;28;20041;-76
2022/05/10 10:36:11;;;;;;;8.55;6.13;;;22.40;99.90;;;;;;5058416;28;20040;-76
2022/05/10 10:38:36;;;;;;;7.72;5.75;;;22.40;99.90;;;;;;5076477;28;20100;-77
2022/05/10 10:41:18;;;;;;;9.20;5.72;;;22.30;99.90;;;;;;5085777;28;20084;-77
2022/05/10 10:43:54;;;;;;;8.05;5.68;;;22.30;99.90;;;;;;5081364;28;20036;-77
2022/05/10 10:46:36;;;;;;;5.97;5.28;;;22.40;99.90;;;;;;5069217;28;20104;-75
2022/05/10 10:49:13;;;;;;;8.13;5.65;;;22.40;99.90;;;;;;5058633;28;20052;-77
2022/05/10 10:51:40;;;;;;;8.43;4.65;;;22.40;99.90;;;;;;5078597;28;20056;-74
2022/05/10 10:54:16;;;;;;;6.68;4.85;;;22.40;99.90;;;;;;5059754;28;20108;-76
2022/05/10 10:56:55;;;;;;;;;;;22.50;99.90;;;;;;5079487;28;20052;-75
2022/05/10 10:59:39;;;;;;;5.45;4.57;;;22.60;99.90;;;;;;5062172;28;20003;-73
2022/05/10 11:02:42;;;;;;;7.00;4.78;;;22.70;99.90;;;;;;5077297;28;20079;-79
2022/05/10 11:05:39;;;;;;;5.72;4.53;;;22.90;99.90;;;;;;5077491;28;20075;-75
2022/05/10 11:08:42;;;;;;;7.45;5.30;;;23.00;99.90;;;;;;5073034;28;20065;-78
2022/05/10 11:11:22;;;;;;;11.77;5.18;;;23.00;99.90;;;;;;5058412;28;20060;-74
2022/05/10 11:14:06;;;;;;;6.13;5.30;;;23.00;99.90;;;;;;5056589;28;20048;-75
2022/05/10 11:16:32;;;;;;;10.13;4.85;;;23.00;99.90;;;;;;5041589;28;20033;-78
2022/05/10 11:19:29;;;;;;;9.18;4.70;;;23.00;99.90;;;;;;5040533;28;20049;-78
2022/05/10 11:22:07;;;;;;;5.22;4.32;;;23.20;99.90;;;;;;5040909;28;20087;-75
2022/05/10 11:25:01;;;;;;;8.27;5.07;;;23.30;99.90;;;;;;5058265;28;20060;-76
2022/05/10 11:27:49;;;;;;;6.50;4.90;;;23.40;99.90;;;;;;5075491;28;20093;-78
2022/05/10 11:30:21;;;;;;;7.30;5.25;;;23.40;99.90;;;;;;5060670;28;20091;-81
2022/05/10 11:33:09;;;;;;;7.75;4.95;;;23.30;99.90;;;;;;5061417;28;20656;-76
2022/05/10 11:35:44;;;;;;;7.25;4.53;;;23.40;99.90;;;;;;5076929;28;20090;-77
2022/05/10 11:38:39;;;;;;;6.57;4.75;;;23.40;99.90;;;;;;5079412;28;20051;-78
2022/05/10 11:41:18;;;;;;;6.60;4.70;;;23.40;99.90;;;;;;5069071;28;20045;-77
2022/05/10 11:43:47;;;;;;;6.10;4.85;;;23.30;99.90;;;;;;5069554;28;20081;-74
2022/05/10 11:46:58;;;;;;;7.18;4.68;;;23.30;99.90;;;;;;5077932;28;20057;-76
2022/05/10 11:50:00;;;;;;;6.90;4.43;;;23.30;99.90;;;;;;5038964;28;20048;-76
2022/05/10 11:52:51;;;;;;;5.93;4.60;;;23.20;99.90;;;;;;5072527;28;20087;-77
2022/05/10 11:55:46;;;;;;;9.00;5.05;;;23.10;99.90;;;;;;5074508;28;20124;-75
2022/05/10 11:58:13;;;;;;;5.50;4.35;;;23.00;99.90;;;;;;5054424;28;20120;-78
2022/05/10 12:00:51;;;;;;;7.45;5.45;;;22.90;99.90;;;;;;5056175;28;20049;-77
2022/05/10 12:03:35;;;;;;;5.55;4.97;;;22.90;99.90;;;;;;5057570;28;20048;-77
2022/05/10 12:06:23;;;;;;;6.78;5.13;;;23.00;99.90;;;;;;5072570;28;20045;-77
2022/05/10 12:08:54;;;;;;;7.30;5.13;;;23.10;99.90;;;;;;5073705;28;20108;-80
2022/05/10 12:11:30;;;;;;;5.05;4.50;;;23.20;99.90;;;;;;5057310;28;20136;-80
2022/05/10 12:22:51;;;;;;;5.50;3.70;;;23.60;99.90;;;;;;5055363;28;20576;-75
2022/05/10 12:25:41;;;;;;;4.95;3.70;;;23.60;99.90;;;;;;5057404;28;20053;-78
2022/05/10 12:28:07;;;;;;;6.47;3.70;;;23.70;99.90;;;;;;5076454;28;20040;-77
2022/05/10 12:30:34;;;;;;;4.93;3.53;;;23.70;99.90;;;;;;5075735;28;20107;-76
2022/05/10 12:33:30;;;;;;;10.05;4.07;;;23.70;99.90;;;;;;5060580;28;20074;-82
2022/05/10 12:36:12;;;;;;;5.20;3.72;;;23.70;99.90;;;;;;5066115;28;20052;-75
2022/05/10 12:38:43;;;;;;;7.47;4.07;;;23.70;99.90;;;;;;5071582;28;20056;-76
2022/05/10 12:41:40;;;;;;;6.43;4.50;;;23.60;99.90;;;;;;5071177;28;20059;-79
2022/05/10 12:44:18;;;;;;;12.15;4.90;;;23.60;99.90;;;;;;5057163;28;20165;-77
2022/05/10 12:47:01;;;;;;;6.97;4.68;;;23.50;99.90;;;;;;5076670;28;20040;-76
2022/05/10 12:50:00;;;;;;;8.15;4.28;;;23.50;99.90;;;;;;5076297;28;20104;-77
2022/05/10 12:52:43;;;;;;;7.30;4.35;;;23.40;99.90;;;;;;5058520;28;20114;-75
2022/05/10 12:55:25;;;;;;;5.72;4.18;;;23.30;99.90;;;;;;5074556;28;20049;-77
2022/05/10 12:58:05;;;;;;;7.72;4.50;;;23.40;99.90;;;;;;5076063;28;20127;-78
2022/05/10 13:00:44;;;;;;;8.60;4.35;;;23.40;99.90;;;;;;5075480;28;20044;-81
2022/05/10 13:03:23;;;;;;;8.43;4.10;;;23.30;99.90;;;;;;5076542;28;20131;-77
2022/05/10 13:06:07;;;;;;;8.65;4.43;;;23.30;99.90;;;;;;5074706;28;20048;-76
2022/05/10 13:08:54;;;;;;;4.85;3.75;;;23.10;99.90;;;;;;5072557;28;20043;-76
2022/05/10 13:11:23;;;;;;;6.68;4.15;;;23.00;99.90;;;;;;5071217;28;20037;-77
2022/05/10 13:13:52;;;;;;;7.70;4.13;;;22.90;99.90;;;;;;5067406;28;20060;-77
2022/05/10 13:16:20;;;;;;;8.25;4.30;;;22.90;99.90;;;;;;5054607;28;20072;-75
2022/05/10 13:18:48;;;;;;;11.75;4.80;;;23.00;99.90;;;;;;5069453;28;20051;-78
2022/05/10 13:21:26;;;;;;;7.90;4.10;;;23.20;99.90;;;;;;5035389;28;20076;-75
2022/05/10 13:23:57;;;;;;;7.63;3.95;;;23.20;99.90;;;;;;5071647;28;20052;-78
2022/05/10 13:26:24;;;;;;;6.82;4.38;;;23.30;99.90;;;;;;5069990;28;20087;-75
2022/05/10 13:28:52;;;;;;;7.65;4.13;;;23.40;99.90;;;;;;5060610;28;20044;-80
2022/05/10 13:31:22;;;;;;;9.90;4.20;;;23.30;99.90;;;;;;5058853;28;20052;-81